Time;durP1;ratioP1;P1;durP2;ratioP2;P2;SDS_P1;SDS_P2;PMS_P1;PMS_P2;Temp;Humidity;BMP_temperature;BMP_pressure;BME280_temperature;BME280_humidity;BME280_pressure;Samples;Min_cycle;Max_cycle;Signal;HPM_P1;HPM_P2
2023/08/22 00:00:37;;;;;;;13.10;9.95;;;;;;;;;;12819147;23;20012;-67
2023/08/22 00:05:38;;;;;;;14.45;8.55;;;;;;;;;;12820088;23;20052;-67
2023/08/22 00:10:38;;;;;;;12.10;8.85;;;;;;;;;;12819593;23;20238;-68
2023/08/22 00:15:39;;;;;;;13.35;9.52;;;;;;;;;;12819428;23;20035;-67
2023/08/22 00:20:40;;;;;;;13.20;9.88;;;;;;;;;;12772194;23;20001;-68
2023/08/22 00:25:41;;;;;;;12.00;9.13;;;;;;;;;;12819031;23;20191;-68
2023/08/22 00:30:42;;;;;;;12.40;9.02;;;;;;;;;;12818717;23;20076;-68
2023/08/22 00:35:42;;;;;;;11.85;8.52;;;;;;;;;;12817969;23;19989;-67
2023/08/22 00:40:42;;;;;;;18.48;10.32;;;;;;;;;;12815862;23;20044;-67
2023/08/22 00:45:43;;;;;;;15.48;9.50;;;;;;;;;;12816333;23;19997;-68
2023/08/22 00:50:43;;;;;;;13.98;9.40;;;;;;;;;;12818623;23;20048;-68
2023/08/22 00:55:43;;;;;;;14.73;9.90;;;;;;;;;;12817898;23;20256;-68
2023/08/22 01:00:44;;;;;;;12.98;8.20;;;;;;;;;;12819185;23;20148;-68
2023/08/22 01:05:49;;;;;;;11.10;9.18;;;;;;;;;;12817976;23;19997;-68
2023/08/22 01:10:52;;;;;;;13.05;10.32;;;;;;;;;;12817733;23;19993;-68
2023/08/22 01:15:54;;;;;;;14.88;9.90;;;;;;;;;;12822211;23;20000;-68
2023/08/22 01:20:58;;;;;;;15.45;10.07;;;;;;;;;;12822494;23;19996;-68
2023/08/22 01:26:00;;;;;;;16.20;10.00;;;;;;;;;;12822308;23;20044;-67
2023/08/22 01:31:04;;;;;;;12.23;9.65;;;;;;;;;;12822531;23;20064;-68
2023/08/22 01:36:06;;;;;;;13.85;10.73;;;;;;;;;;12821864;23;19997;-68
2023/08/22 01:41:07;;;;;;;16.05;11.73;;;;;;;;;;12818121;23;20006;-68
2023/08/22 01:46:07;;;;;;;13.05;9.55;;;;;;;;;;12821668;23;20043;-68
2023/08/22 01:51:07;;;;;;;17.10;10.10;;;;;;;;;;12822413;23;20008;-68
2023/08/22 01:56:08;;;;;;;13.30;10.10;;;;;;;;;;12774630;23;19992;-68
2023/08/22 02:01:09;;;;;;;17.97;11.13;;;;;;;;;;12822043;23;20305;-68
2023/08/22 02:06:09;;;;;;;13.40;10.45;;;;;;;;;;12821727;23;20057;-70
2023/08/22 02:11:09;;;;;;;16.38;10.55;;;;;;;;;;12821527;23;20027;-70
2023/08/22 02:16:10;;;;;;;24.63;12.38;;;;;;;;;;12822272;23;19993;-71
2023/08/22 02:21:10;;;;;;;16.43;10.40;;;;;;;;;;12821734;23;20020;-70
2023/08/22 02:26:10;;;;;;;15.63;10.52;;;;;;;;;;12815446;23;19999;-70
2023/08/22 02:31:10;;;;;;;15.68;10.77;;;;;;;;;;12818935;23;20017;-70
2023/08/22 02:36:11;;;;;;;16.88;10.00;;;;;;;;;;12818033;23;20318;-70
2023/08/22 02:41:11;;;;;;;17.33;11.20;;;;;;;;;;12814041;23;20008;-70
2023/08/22 02:46:11;;;;;;;14.43;10.90;;;;;;;;;;12819607;23;20064;-70
2023/08/22 02:51:11;;;;;;;12.60;9.40;;;;;;;;;;12819508;23;19993;-70
2023/08/22 02:56:12;;;;;;;11.82;10.40;;;;;;;;;;12817222;23;20008;-70
2023/08/22 03:01:12;;;;;;;13.35;10.05;;;;;;;;;;12817226;23;20022;-70
2023/08/22 03:06:13;;;;;;;16.77;10.65;;;;;;;;;;12818677;23;20342;-70
2023/08/22 03:11:13;;;;;;;18.45;11.07;;;;;;;;;;12773812;23;20051;-70
2023/08/22 03:16:13;;;;;;;14.47;11.10;;;;;;;;;;12820754;23;20117;-71
2023/08/22 03:21:14;;;;;;;13.95;10.65;;;;;;;;;;12821052;23;19989;-69
2023/08/22 03:26:14;;;;;;;19.42;11.35;;;;;;;;;;12773531;23;20016;-69
2023/08/22 03:31:14;;;;;;;17.75;10.95;;;;;;;;;;12820590;23;20040;-69
2023/08/22 03:36:15;;;;;;;20.25;11.15;;;;;;;;;;12820420;23;20133;-69
2023/08/22 03:41:15;;;;;;;18.35;11.57;;;;;;;;;;12817072;23;19989;-71
2023/08/22 03:46:15;;;;;;;16.90;12.93;;;;;;;;;;12820470;23;20071;-69
2023/08/22 03:51:16;;;;;;;15.07;11.02;;;;;;;;;;12821053;23;20577;-71
2023/08/22 03:56:16;;;;;;;16.03;11.10;;;;;;;;;;12820590;23;19993;-72
2023/08/22 04:01:16;;;;;;;22.83;11.35;;;;;;;;;;12820178;23;20032;-71
2023/08/22 04:06:16;;;;;;;20.92;10.95;;;;;;;;;;12820093;23;20345;-71
2023/08/22 04:11:17;;;;;;;19.77;11.70;;;;;;;;;;12772642;23;19994;-71
2023/08/22 04:16:17;;;;;;;18.60;12.27;;;;;;;;;;12819892;23;20000;-71
2023/08/22 04:21:17;;;;;;;17.00;11.77;;;;;;;;;;12818389;23;20240;-71
2023/08/22 04:26:18;;;;;;;15.55;12.18;;;;;;;;;;12819024;23;20295;-72
2023/08/22 04:31:18;;;;;;;16.67;11.48;;;;;;;;;;12820083;23;20013;-71
2023/08/22 04:36:18;;;;;;;21.40;11.77;;;;;;;;;;12814804;23;20190;-72
2023/08/22 04:41:18;;;;;;;17.45;11.35;;;;;;;;;;12806232;23;20008;-71
2023/08/22 04:46:19;;;;;;;17.52;10.57;;;;;;;;;;12798966;23;20318;-74
2023/08/22 04:51:19;;;;;;;16.47;11.30;;;;;;;;;;12801037;23;20013;-75
2023/08/22 04:56:19;;;;;;;16.63;10.38;;;;;;;;;;12798278;23;19997;-76
2023/08/22 05:01:20;;;;;;;25.38;11.07;;;;;;;;;;12799095;23;20001;-73
2023/08/22 05:06:20;;;;;;;15.68;10.65;;;;;;;;;;12799746;23;20031;-73
2023/08/22 05:11:20;;;;;;;25.40;12.00;;;;;;;;;;12799347;23;20183;-73
2023/08/22 05:16:21;;;;;;;22.33;11.10;;;;;;;;;;12796747;23;20004;-73
2023/08/22 05:21:21;;;;;;;15.60;11.15;;;;;;;;;;12750723;23;20306;-73
2023/08/22 05:26:21;;;;;;;19.70;11.50;;;;;;;;;;12796611;23;20005;-73
2023/08/22 05:31:22;;;;;;;14.48;9.80;;;;;;;;;;12684181;23;20010;-72
2023/08/22 05:36:22;;;;;;;21.33;10.02;;;;;;;;;;12739275;23;20057;-71
2023/08/22 05:41:23;;;;;;;14.45;9.40;;;;;;;;;;12733206;23;20005;-72
2023/08/22 05:46:23;;;;;;;15.73;9.67;;;;;;;;;;12734796;23;20200;-71
2023/08/22 05:51:23;;;;;;;22.23;9.57;;;;;;;;;;12735560;23;20179;-72
2023/08/22 05:56:23;;;;;;;15.60;8.52;;;;;;;;;;12736785;23;20027;-73
2023/08/22 06:01:24;;;;;;;11.02;7.90;;;;;;;;;;12741294;23;20043;-73
2023/08/22 06:06:24;;;;;;;16.05;8.82;;;;;;;;;;12742817;23;20225;-73
2023/08/22 06:11:24;;;;;;;15.10;8.73;;;;;;;;;;12742695;23;20337;-73
2023/08/22 06:16:24;;;;;;;16.15;8.73;;;;;;;;;;12742368;23;20346;-71
2023/08/22 06:21:25;;;;;;;20.90;8.65;;;;;;;;;;12743258;23;20021;-71
2023/08/22 06:26:25;;;;;;;13.30;9.35;;;;;;;;;;12742490;23;20311;-72
2023/08/22 06:31:26;;;;;;;20.25;9.02;;;;;;;;;;12803984;23;20016;-71
2023/08/22 06:36:26;;;;;;;18.40;8.27;;;;;;;;;;12803265;23;20001;-72
2023/08/22 06:41:27;;;;;;;10.23;7.50;;;;;;;;;;12799235;23;20003;-72
2023/08/22 06:46:27;;;;;;;16.73;7.88;;;;;;;;;;12803611;23;20554;-73
2023/08/22 06:51:27;;;;;;;13.70;8.37;;;;;;;;;;12803195;23;20226;-72
2023/08/22 06:56:27;;;;;;;13.95;8.18;;;;;;;;;;12803272;23;20234;-71
2023/08/22 07:01:28;;;;;;;14.23;8.63;;;;;;;;;;12803137;23;20084;-71
2023/08/22 07:06:28;;;;;;;11.73;7.70;;;;;;;;;;12803329;23;20001;-71
2023/08/22 07:11:28;;;;;;;15.35;9.00;;;;;;;;;;12804037;23;19997;-73
2023/08/22 07:16:28;;;;;;;16.33;8.27;;;;;;;;;;12802887;23;20160;-72
2023/08/22 07:21:29;;;;;;;12.77;7.85;;;;;;;;;;12803789;23;20191;-72
2023/08/22 07:26:29;;;;;;;18.38;8.82;;;;;;;;;;12802257;23;20164;-72
2023/08/22 07:31:29;;;;;;;12.57;6.82;;;;;;;;;;12803124;23;20011;-72
2023/08/22 07:36:29;;;;;;;14.67;6.93;;;;;;;;;;12760653;23;20068;-73
2023/08/22 07:41:30;;;;;;;11.18;7.18;;;;;;;;;;12803718;23;20275;-73
2023/08/22 07:46:30;;;;;;;9.73;6.90;;;;;;;;;;12761526;23;20068;-72
2023/08/22 07:51:31;;;;;;;12.02;7.00;;;;;;;;;;12808930;23;19997;-72
2023/08/22 07:56:33;;;;;;;12.07;5.25;;;;;;;;;;12808299;23;20191;-72
2023/08/22 08:01:34;;;;;;;10.65;5.78;;;;;;;;;;12806819;23;20366;-72
2023/08/22 08:06:35;;;;;;;9.73;6.17;;;;;;;;;;12808759;23;20005;-72
2023/08/22 08:11:35;;;;;;;7.30;6.00;;;;;;;;;;12809203;23;20228;-73
2023/08/22 08:16:35;;;;;;;10.85;6.55;;;;;;;;;;12808051;23;20013;-74
2023/08/22 08:21:36;;;;;;;13.20;6.00;;;;;;;;;;12760858;23;20275;-73
2023/08/22 08:26:37;;;;;;;15.30;6.13;;;;;;;;;;12807233;23;20314;-73
2023/08/22 08:31:37;;;;;;;8.65;4.97;;;;;;;;;;12809947;23;20051;-73
2023/08/22 08:36:38;;;;;;;12.00;5.10;;;;;;;;;;12808367;23;20075;-73
2023/08/22 08:41:40;;;;;;;14.35;4.50;;;;;;;;;;12759857;23;20215;-73
2023/08/22 08:46:41;;;;;;;11.13;4.72;;;;;;;;;;12808735;23;20008;-73
2023/08/22 08:51:42;;;;;;;9.32;4.53;;;;;;;;;;12807748;23;20184;-73
2023/08/22 08:56:42;;;;;;;12.55;4.47;;;;;;;;;;12806984;23;20001;-73
2023/08/22 09:01:43;;;;;;;8.40;4.88;;;;;;;;;;12806915;23;20001;-73
2023/08/22 09:06:44;;;;;;;15.20;4.78;;;;;;;;;;12807776;23;20004;-73
2023/08/22 09:11:46;;;;;;;7.32;4.22;;;;;;;;;;12759388;23;20332;-73
2023/08/22 09:16:47;;;;;;;10.80;3.28;;;;;;;;;;12808047;23;20001;-73
2023/08/22 09:22:08;;;;;;;5.65;3.75;;;;;;;;;;12808066;23;20004;-73
2023/08/22 09:27:08;;;;;;;7.35;3.05;;;;;;;;;;12785865;23;20336;-73
2023/08/22 09:32:09;;;;;;;16.50;3.47;;;;;;;;;;12807450;23;20000;-73
2023/08/22 09:37:09;;;;;;;8.60;3.47;;;;;;;;;;12810195;23;19997;-73
2023/08/22 09:42:10;;;;;;;7.30;3.47;;;;;;;;;;12803267;23;20342;-73
2023/08/22 09:47:10;;;;;;;4.18;3.60;;;;;;;;;;12810825;23;20060;-72
2023/08/22 09:52:10;;;;;;;6.10;3.30;;;;;;;;;;12811999;23;20005;-72
2023/08/22 09:57:11;;;;;;;13.38;3.58;;;;;;;;;;12811388;23;20334;-72
2023/08/22 10:02:11;;;;;;;5.43;2.95;;;;;;;;;;12812745;23;20582;-70
2023/08/22 10:07:13;;;;;;;5.83;3.13;;;;;;;;;;12811937;23;20044;-74
2023/08/22 10:12:24;;;;;;;7.53;2.78;;;;;;;;;;12764782;23;20299;-72
2023/08/22 10:17:45;;;;;;;4.80;2.85;;;;;;;;;;12779880;23;19993;-81
2023/08/22 10:22:45;;;;;;;4.82;2.63;;;;;;;;;;12809666;23;19997;-70
2023/08/22 10:27:48;;;;;;;3.40;2.50;;;;;;;;;;12810353;23;20508;-69
2023/08/22 10:33:02;;;;;;;5.20;2.43;;;;;;;;;;12810290;23;19990;-69
2023/08/22 10:38:03;;;;;;;4.50;2.50;;;;;;;;;;12808492;23;20008;-71
2023/08/22 10:43:08;;;;;;;9.82;3.00;;;;;;;;;;12797461;23;20000;-70
2023/08/22 10:48:12;;;;;;;7.10;2.80;;;;;;;;;;12808676;23;20015;-69
2023/08/22 10:53:21;;;;;;;5.80;2.85;;;;;;;;;;12808381;23;20036;-70
2023/08/22 10:58:35;;;;;;;7.32;2.92;;;;;;;;;;12803777;23;20362;-70
2023/08/22 11:03:35;;;;;;;9.00;2.97;;;;;;;;;;12809581;23;20003;-72
2023/08/22 11:08:36;;;;;;;5.67;3.73;;;;;;;;;;12808585;23;20303;-70
2023/08/22 11:13:37;;;;;;;5.15;3.83;;;;;;;;;;12809383;23;20125;-68
2023/08/22 11:18:39;;;;;;;11.63;5.05;;;;;;;;;;12810756;23;20303;-68
2023/08/22 11:23:39;;;;;;;13.25;4.85;;;;;;;;;;12809483;23;20068;-69
2023/08/22 11:28:40;;;;;;;10.33;5.23;;;;;;;;;;12809652;23;20012;-68
2023/08/22 11:33:48;;;;;;;14.02;4.90;;;;;;;;;;12809372;23;19989;-69
2023/08/22 11:38:49;;;;;;;8.18;4.82;;;;;;;;;;12809048;23;20211;-69
2023/08/22 11:43:52;;;;;;;5.65;4.40;;;;;;;;;;12794368;23;20001;-69
2023/08/22 11:48:53;;;;;;;6.53;4.43;;;;;;;;;;12809681;23;20016;-68
2023/08/22 11:53:53;;;;;;;5.40;4.07;;;;;;;;;;12809071;23;19996;-68
2023/08/22 11:58:53;;;;;;;10.65;5.20;;;;;;;;;;12808862;23;20044;-69
2023/08/22 12:03:54;;;;;;;5.10;4.20;;;;;;;;;;12810540;23;20016;-69
2023/08/22 12:08:56;;;;;;;5.72;4.25;;;;;;;;;;12808379;23;19993;-70
2023/08/22 12:13:57;;;;;;;8.00;4.35;;;;;;;;;;12808533;23;20173;-68
2023/08/22 12:18:57;;;;;;;7.70;4.17;;;;;;;;;;12810083;23;20001;-69
2023/08/22 12:23:57;;;;;;;8.68;5.32;;;;;;;;;;12808668;23;20048;-69
2023/08/22 12:28:57;;;;;;;12.03;5.47;;;;;;;;;;12807906;23;20314;-69
2023/08/22 12:33:57;;;;;;;7.10;5.30;;;;;;;;;;12809322;23;20256;-75
2023/08/22 12:38:58;;;;;;;6.57;4.97;;;;;;;;;;12807185;23;20303;-68
2023/08/22 12:43:58;;;;;;;7.50;4.93;;;;;;;;;;12793294;23;20008;-69
2023/08/22 12:48:58;;;;;;;15.75;6.13;;;;;;;;;;12808803;23;20008;-69
2023/08/22 12:53:58;;;;;;;12.95;6.00;;;;;;;;;;12760510;23;20184;-68
2023/08/22 12:58:59;;;;;;;9.07;6.20;;;;;;;;;;12807808;23;19992;-68
2023/08/22 13:03:59;;;;;;;9.93;5.50;;;;;;;;;;12808556;23;20028;-69
2023/08/22 13:08:59;;;;;;;7.83;5.70;;;;;;;;;;12808798;23;20263;-68
2023/08/22 13:13:59;;;;;;;13.77;5.47;;;;;;;;;;12807648;23;20248;-69
2023/08/22 13:19:00;;;;;;;11.80;5.30;;;;;;;;;;12808223;23;20221;-69
2023/08/22 13:24:00;;;;;;;7.00;5.73;;;;;;;;;;12807642;23;20005;-69
2023/08/22 13:29:01;;;;;;;9.93;5.43;;;;;;;;;;12807125;23;20040;-70
2023/08/22 13:34:01;;;;;;;7.80;5.30;;;;;;;;;;12737842;23;20236;-69
2023/08/22 13:39:01;;;;;;;10.48;6.22;;;;;;;;;;12761673;23;20001;-69
2023/08/22 13:44:02;;;;;;;15.30;6.03;;;;;;;;;;12791300;23;20008;-69
2023/08/22 13:49:03;;;;;;;11.48;6.70;;;;;;;;;;12807400;23;20043;-68
2023/08/22 13:54:03;;;;;;;25.05;12.10;;;;;;;;;;12808309;23;20210;-69
2023/08/22 13:59:03;;;;;;;8.80;5.93;;;;;;;;;;12807175;23;19997;-69
2023/08/22 14:04:04;;;;;;;14.10;6.13;;;;;;;;;;12808029;23;20073;-69
2023/08/22 14:09:04;;;;;;;10.10;5.32;;;;;;;;;;12807670;23;20228;-69
2023/08/22 14:14:04;;;;;;;10.73;4.85;;;;;;;;;;12807217;23;20053;-69
2023/08/22 14:19:04;;;;;;;12.90;5.80;;;;;;;;;;12808366;23;19993;-73
2023/08/22 14:24:05;;;;;;;8.13;6.07;;;;;;;;;;12810092;23;19989;-73
2023/08/22 14:29:05;;;;;;;13.80;6.18;;;;;;;;;;12810309;23;20042;-72
2023/08/22 14:34:05;;;;;;;14.27;6.20;;;;;;;;;;12763520;23;20374;-72
2023/08/22 14:39:07;;;;;;;8.48;7.10;;;;;;;;;;12810982;23;20042;-72
2023/08/22 14:44:08;;;;;;;15.25;6.90;;;;;;;;;;12794017;23;20031;-71
2023/08/22 14:49:09;;;;;;;11.02;7.03;;;;;;;;;;12812027;23;20264;-72
2023/08/22 14:54:10;;;;;;;12.45;7.07;;;;;;;;;;12810619;23;20012;-71
2023/08/22 14:59:11;;;;;;;12.25;6.82;;;;;;;;;;12809970;23;20211;-72
2023/08/22 15:04:11;;;;;;;11.77;6.57;;;;;;;;;;12806788;23;19993;-71
2023/08/22 15:09:11;;;;;;;11.45;6.80;;;;;;;;;;12761034;23;20005;-72
2023/08/22 15:14:12;;;;;;;8.03;6.63;;;;;;;;;;12806986;23;19989;-72
2023/08/22 15:19:12;;;;;;;9.57;6.55;;;;;;;;;;12810376;23;20026;-72
2023/08/22 15:24:12;;;;;;;11.90;6.22;;;;;;;;;;12811050;23;20001;-72
2023/08/22 15:29:13;;;;;;;12.57;6.05;;;;;;;;;;12811020;23;20076;-72
2023/08/22 15:34:14;;;;;;;12.52;7.30;;;;;;;;;;12789413;23;20116;-72
2023/08/22 15:39:14;;;;;;;12.17;6.27;;;;;;;;;;12811035;23;19996;-72
2023/08/22 15:44:15;;;;;;;9.30;6.57;;;;;;;;;;12793779;23;20228;-72
2023/08/22 15:49:15;;;;;;;8.30;6.13;;;;;;;;;;12789058;23;20009;-71
2023/08/22 15:54:15;;;;;;;9.23;5.78;;;;;;;;;;12810667;23;20001;-72
2023/08/22 15:59:16;;;;;;;13.38;6.18;;;;;;;;;;12810101;23;19993;-72
2023/08/22 16:04:16;;;;;;;12.10;8.10;;;;;;;;;;12810278;23;20207;-72
2023/08/22 16:09:16;;;;;;;14.27;7.30;;;;;;;;;;12809545;23;20275;-71
2023/08/22 16:14:16;;;;;;;15.57;7.68;;;;;;;;;;12809654;23;20001;-72
2023/08/22 16:19:17;;;;;;;16.42;6.93;;;;;;;;;;12809793;23;19993;-71
2023/08/22 16:24:17;;;;;;;15.83;7.73;;;;;;;;;;12810098;23;20346;-71
2023/08/22 16:29:18;;;;;;;13.60;7.10;;;;;;;;;;12763161;23;20009;-70
2023/08/22 16:34:18;;;;;;;22.85;8.32;;;;;;;;;;12762157;23;20048;-72
2023/08/22 16:39:19;;;;;;;12.43;7.13;;;;;;;;;;12808415;23;20051;-70
2023/08/22 16:44:20;;;;;;;14.05;7.90;;;;;;;;;;12790974;23;20030;-71
2023/08/22 16:49:20;;;;;;;11.52;6.60;;;;;;;;;;12809034;23;20005;-70
2023/08/22 16:54:20;;;;;;;12.50;7.15;;;;;;;;;;12808214;23;20164;-71
2023/08/22 16:59:21;;;;;;;11.25;6.80;;;;;;;;;;12758821;23;20016;-72
2023/08/22 17:04:21;;;;;;;8.55;7.15;;;;;;;;;;12805521;23;20001;-69
2023/08/22 17:09:21;;;;;;;12.63;8.02;;;;;;;;;;12807700;23;20242;-69
2023/08/22 17:14:21;;;;;;;20.00;8.30;;;;;;;;;;12762382;23;19993;-69
2023/08/22 17:19:22;;;;;;;18.25;9.30;;;;;;;;;;12809458;23;19997;-69
2023/08/22 17:24:22;;;;;;;17.25;7.82;;;;;;;;;;12809294;23;20007;-68
2023/08/22 17:29:22;;;;;;;17.08;7.65;;;;;;;;;;12809794;23;20017;-68
2023/08/22 17:34:22;;;;;;;14.85;7.90;;;;;;;;;;12809190;23;20303;-68
2023/08/22 17:39:23;;;;;;;15.30;6.90;;;;;;;;;;12809006;23;20048;-71
2023/08/22 17:44:23;;;;;;;12.85;8.07;;;;;;;;;;12791864;23;19997;-69
2023/08/22 17:49:23;;;;;;;12.80;6.90;;;;;;;;;;12809205;23;20005;-70
2023/08/22 17:54:24;;;;;;;12.45;8.60;;;;;;;;;;12808422;23;19989;-70
2023/08/22 17:59:24;;;;;;;15.73;8.93;;;;;;;;;;12813672;23;20000;-70
2023/08/22 18:04:24;;;;;;;14.20;8.25;;;;;;;;;;12812624;23;20283;-70
2023/08/22 18:09:24;;;;;;;13.43;8.10;;;;;;;;;;12813385;23;20097;-71
2023/08/22 18:14:25;;;;;;;18.55;8.95;;;;;;;;;;12813000;23;20263;-71
2023/08/22 18:19:25;;;;;;;15.03;8.77;;;;;;;;;;12766419;23;20005;-73
2023/08/22 18:24:26;;;;;;;15.13;7.87;;;;;;;;;;12811359;23;19993;-71
2023/08/22 18:29:27;;;;;;;9.68;7.13;;;;;;;;;;12764451;23;20287;-70
2023/08/22 18:34:28;;;;;;;14.37;7.20;;;;;;;;;;12809060;23;20308;-70
2023/08/22 18:39:29;;;;;;;10.23;7.78;;;;;;;;;;12806565;23;20040;-70
2023/08/22 18:44:29;;;;;;;14.13;7.47;;;;;;;;;;12791528;23;20009;-73
2023/08/22 18:49:29;;;;;;;9.23;7.13;;;;;;;;;;12808822;23;20009;-72
2023/08/22 18:54:29;;;;;;;14.00;7.22;;;;;;;;;;12810282;23;20310;-78
2023/08/22 18:59:30;;;;;;;10.70;7.30;;;;;;;;;;12810730;23;20001;-72
2023/08/22 19:04:30;;;;;;;11.27;6.97;;;;;;;;;;12811411;23;20176;-70
2023/08/22 19:09:30;;;;;;;10.57;6.72;;;;;;;;;;12810531;23;20005;-70
2023/08/22 19:14:31;;;;;;;15.77;7.13;;;;;;;;;;12808365;23;20049;-78
2023/08/22 19:19:31;;;;;;;10.50;7.27;;;;;;;;;;12809744;23;20239;-77
2023/08/22 19:24:33;;;;;;;13.25;6.45;;;;;;;;;;12809267;23;20001;-78
2023/08/22 19:29:33;;;;;;;15.15;6.85;;;;;;;;;;12805343;23;20020;-75
2023/08/22 19:34:33;;;;;;;9.30;7.10;;;;;;;;;;12809702;23;20004;-76
2023/08/22 19:39:34;;;;;;;13.13;7.40;;;;;;;;;;12808766;23;20224;-74
2023/08/22 19:44:34;;;;;;;11.65;7.10;;;;;;;;;;12790427;23;20206;-72
2023/08/22 19:49:34;;;;;;;9.65;7.07;;;;;;;;;;12809445;23;20299;-79
2023/08/22 19:54:34;;;;;;;13.07;6.90;;;;;;;;;;12762604;23;20315;-72
2023/08/22 19:59:36;;;;;;;17.47;7.63;;;;;;;;;;12807960;23;20299;-70
2023/08/22 20:04:37;;;;;;;11.00;7.18;;;;;;;;;;12809631;23;19993;-71
2023/08/22 20:09:37;;;;;;;8.55;6.18;;;;;;;;;;12761322;23;20295;-72
2023/08/22 20:14:39;;;;;;;10.18;7.30;;;;;;;;;;12808588;23;20004;-69
2023/08/22 20:19:40;;;;;;;11.95;8.27;;;;;;;;;;12807898;23;20176;-74
2023/08/22 20:24:40;;;;;;;11.77;8.43;;;;;;;;;;12808999;23;19993;-74
2023/08/22 20:29:40;;;;;;;13.75;9.90;;;;;;;;;;12807714;23;20198;-71
2023/08/22 20:34:40;;;;;;;13.15;8.57;;;;;;;;;;12808146;23;20048;-71
2023/08/22 20:39:41;;;;;;;20.27;14.80;;;;;;;;;;12760567;23;20188;-71
2023/08/22 20:44:41;;;;;;;10.88;8.30;;;;;;;;;;12789799;23;20005;-71
2023/08/22 20:49:42;;;;;;;12.10;8.07;;;;;;;;;;12808222;23;20248;-75
2023/08/22 20:54:42;;;;;;;12.30;8.17;;;;;;;;;;12807371;23;20041;-70
2023/08/22 20:59:44;;;;;;;8.00;7.13;;;;;;;;;;12807203;23;20323;-72
2023/08/22 21:04:44;;;;;;;11.23;8.32;;;;;;;;;;12807476;23;20056;-71
2023/08/22 21:09:45;;;;;;;16.75;8.02;;;;;;;;;;12807108;23;19997;-72
2023/08/22 21:14:45;;;;;;;15.13;7.17;;;;;;;;;;12808234;23;20064;-72
2023/08/22 21:19:45;;;;;;;17.27;7.75;;;;;;;;;;12806437;23;20024;-73
2023/08/22 21:24:45;;;;;;;15.60;7.90;;;;;;;;;;12759635;23;20005;-73
2023/08/22 21:29:46;;;;;;;12.40;8.13;;;;;;;;;;12809673;23;20016;-72
2023/08/22 21:34:46;;;;;;;10.38;8.45;;;;;;;;;;12811435;23;20036;-72
2023/08/22 21:39:49;;;;;;;10.27;7.17;;;;;;;;;;12807571;23;20105;-73
2023/08/22 21:44:49;;;;;;;11.50;7.45;;;;;;;;;;12760150;23;20252;-72
2023/08/22 21:49:50;;;;;;;10.40;8.30;;;;;;;;;;12808028;23;20001;-72
2023/08/22 21:54:50;;;;;;;17.08;7.85;;;;;;;;;;12811264;23;20001;-73
2023/08/22 21:59:51;;;;;;;14.00;8.20;;;;;;;;;;12811375;23;20271;-72
2023/08/22 22:04:51;;;;;;;14.43;7.50;;;;;;;;;;12810766;23;20008;-71
2023/08/22 22:09:51;;;;;;;11.55;8.02;;;;;;;;;;12809541;23;20001;-73
2023/08/22 22:14:51;;;;;;;11.15;8.82;;;;;;;;;;12807181;23;20179;-74
2023/08/22 22:19:52;;;;;;;14.23;8.73;;;;;;;;;;12808401;23;20068;-72
2023/08/22 22:24:52;;;;;;;14.80;8.90;;;;;;;;;;12808876;23;19997;-71
2023/08/22 22:29:52;;;;;;;11.75;8.98;;;;;;;;;;12810642;23;20017;-72
2023/08/22 22:34:52;;;;;;;11.32;8.77;;;;;;;;;;12810285;23;19993;-73
2023/08/22 22:39:53;;;;;;;12.05;8.45;;;;;;;;;;12810836;23;20068;-71
2023/08/22 22:44:54;;;;;;;18.05;9.30;;;;;;;;;;12787893;23;20056;-72
2023/08/22 22:49:55;;;;;;;14.48;9.77;;;;;;;;;;12807121;23;20008;-72
2023/08/22 22:54:55;;;;;;;15.15;9.50;;;;;;;;;;12809219;23;20008;-71
2023/08/22 22:59:55;;;;;;;22.58;8.82;;;;;;;;;;12761117;23;20335;-71
2023/08/22 23:04:55;;;;;;;18.17;9.45;;;;;;;;;;12759639;23;20001;-74
2023/08/22 23:09:56;;;;;;;14.32;10.18;;;;;;;;;;12806871;23;20001;-72
2023/08/22 23:14:56;;;;;;;16.25;9.80;;;;;;;;;;12808247;23;19993;-72
2023/08/22 23:19:56;;;;;;;14.85;9.80;;;;;;;;;;12809918;23;19993;-72
2023/08/22 23:24:56;;;;;;;18.10;10.15;;;;;;;;;;12810477;23;20005;-72
2023/08/22 23:29:57;;;;;;;12.57;9.50;;;;;;;;;;12808162;23;20311;-72
2023/08/22 23:34:58;;;;;;;15.20;9.55;;;;;;;;;;12763162;23;20044;-72
2023/08/22 23:40:02;;;;;;;16.60;10.23;;;;;;;;;;12809797;23;20302;-72
2023/08/22 23:45:03;;;;;;;15.77;9.75;;;;;;;;;;12789089;23;20004;-72
2023/08/22 23:50:03;;;;;;;19.70;9.95;;;;;;;;;;12808654;23;20271;-72
2023/08/22 23:55:04;;;;;;;19.55;13.32;;;;;;;;;;12809351;23;20068;-72
